Time;durP1;ratioP1;P1;durP2;ratioP2;P2;SDS_P1;SDS_P2;PMS_P1;PMS_P2;Temp;Humidity;BMP_temperature;BMP_pressure;BME280_temperature;BME280_humidity;BME280_pressure;Samples;Min_cycle;Max_cycle;Signal;HPM_P1;HPM_P2
2021/09/17 00:00:33;;;;;;;;;;;10.40;99.90;;;;;;5004749;28;20299;-68
2021/09/17 00:02:58;;;;;;;;;;;10.40;99.90;;;;;;5005138;28;19975;-68
2021/09/17 00:05:24;;;;;;;;;;;10.50;99.90;;;;;;5004996;28;19920;-68
2021/09/17 00:07:50;;;;;;;;;;;10.80;99.90;;;;;;5003995;28;19914;-67
2021/09/17 00:10:16;;;;;;;;;;;11.00;99.90;;;;;;5000334;28;20384;-67
2021/09/17 00:12:42;;;;;;;;;;;11.00;99.90;;;;;;4990608;28;19920;-68
2021/09/17 00:15:09;;;;;;;;;;;11.10;99.90;;;;;;5001962;28;19913;-67
2021/09/17 00:17:34;;;;;;;;;;;11.10;99.90;;;;;;5002970;28;19909;-67
2021/09/17 00:20:00;;;;;;;;;;;11.00;99.90;;;;;;4984297;28;19936;-67
2021/09/17 00:22:25;;;;;;;;;;;11.00;99.90;;;;;;5002612;28;20328;-67
2021/09/17 00:24:51;;;;;;;;;;;11.00;99.90;;;;;;5001390;28;19913;-68
2021/09/17 00:27:16;;;;;;;;;;;10.80;99.90;;;;;;5004799;28;20549;-67
2021/09/17 00:29:42;;;;;;;;;;;10.80;99.90;;;;;;4997242;28;19914;-68
2021/09/17 00:32:07;;;;;;;;;;;10.60;99.90;;;;;;4998686;28;19921;-68
2021/09/17 00:34:33;;;;;;;;;;;10.60;99.90;;;;;;5000018;28;19999;-67
2021/09/17 00:36:58;;;;;;;;;;;10.70;99.90;;;;;;4998898;28;19917;-68
2021/09/17 00:39:24;;;;;;;;;;;10.60;99.90;;;;;;5004586;28;19925;-67
2021/09/17 00:41:49;;;;;;;;;;;10.70;99.90;;;;;;4996732;28;20020;-68
2021/09/17 00:44:22;;;;;;;;;;;10.70;99.90;;;;;;5005608;28;19914;-67
2021/09/17 00:46:48;;;;;;;;;;;10.70;99.90;;;;;;5003032;28;19920;-67
2021/09/17 00:49:13;;;;;;;;;;;10.60;99.90;;;;;;5005044;28;19913;-68
2021/09/17 00:51:39;;;;;;;;;;;10.60;99.90;;;;;;5002529;28;19913;-67
2021/09/17 00:54:04;;;;;;;;;;;10.70;99.90;;;;;;4998634;28;20372;-67
2021/09/17 00:56:30;;;;;;;;;;;10.80;99.90;;;;;;4993275;28;19909;-67
2021/09/17 00:58:55;;;;;;;;;;;11.00;99.90;;;;;;5000839;28;19917;-68
2021/09/17 01:01:21;;;;;;;;;;;11.10;99.90;;;;;;4999958;28;19945;-67
2021/09/17 01:03:46;;;;;;;;;;;11.30;99.90;;;;;;4990208;28;19917;-67
2021/09/17 01:06:12;;;;;;;;;;;11.30;99.90;;;;;;5005519;28;19959;-67
2021/09/17 01:08:38;;;;;;;;;;;11.40;99.90;;;;;;5007130;28;19957;-68
2021/09/17 01:11:04;;;;;;;;;;;11.50;99.90;;;;;;5004906;28;20039;-68
2021/09/17 01:13:30;;;;;;;;;;;11.50;99.90;;;;;;5004188;28;20011;-67
2021/09/17 01:15:55;;;;;;;;;;;11.60;99.90;;;;;;4994058;28;20284;-68
2021/09/17 01:18:21;;;;;;;;;;;11.60;99.90;;;;;;5010350;28;19906;-67
2021/09/17 01:20:46;;;;;;;;;;;11.60;99.90;;;;;;5010728;28;19913;-67
2021/09/17 01:23:12;;;;;;;;;;;11.60;99.90;;;;;;5004347;28;20516;-69
2021/09/17 01:25:37;;;;;;;;;;;11.70;99.90;;;;;;5009580;28;19924;-68
2021/09/17 01:28:04;;;;;;;;;;;11.70;99.90;;;;;;5006028;28;19937;-68
2021/09/17 01:30:30;;;;;;;;;;;11.80;99.90;;;;;;5001142;28;19921;-68
2021/09/17 01:32:56;;;;;;;;;;;11.80;99.90;;;;;;5005031;28;20493;-68
2021/09/17 01:35:22;;;;;;;;;;;11.90;99.90;;;;;;5003910;28;19909;-68
2021/09/17 01:37:48;;;;;;;;;;;11.90;99.90;;;;;;5010811;28;19905;-68
2021/09/17 01:40:14;;;;;;;;;;;11.90;99.90;;;;;;5004508;28;20004;-68
2021/09/17 01:42:39;;;;;;;;;;;12.00;99.90;;;;;;4978357;28;20020;-68
2021/09/17 01:45:05;;;;;;;;;;;12.00;99.90;;;;;;5011129;28;19944;-68
2021/09/17 01:47:31;;;;;;;;;;;12.00;99.90;;;;;;4992790;28;19917;-68
2021/09/17 01:49:56;;;;;;;;;;;12.00;99.90;;;;;;5004725;28;19910;-68
2021/09/17 01:52:22;;;;;;;;;;;12.00;99.90;;;;;;5009075;28;19913;-68
2021/09/17 01:54:47;;;;;;;;;;;12.00;99.90;;;;;;5009764;28;19911;-68
2021/09/17 01:57:13;;;;;;;;;;;12.10;99.90;;;;;;5002983;28;19910;-68
2021/09/17 01:59:38;;;;;;;;;;;12.10;99.90;;;;;;5004023;28;20001;-68
2021/09/17 02:02:04;;;;;;;;;;;12.10;99.90;;;;;;5010768;28;20340;-68
2021/09/17 02:04:29;;;;;;;;;;;12.20;99.90;;;;;;5004988;28;19917;-68
2021/09/17 02:06:55;;;;;;;;;;;12.20;99.90;;;;;;5010380;28;19917;-68
2021/09/17 02:09:20;;;;;;;;;;;12.20;99.90;;;;;;5010293;28;19909;-69
2021/09/17 02:11:46;;;;;;;;;;;12.20;99.90;;;;;;5007207;28;19910;-68
2021/09/17 02:14:12;;;;;;;;;;;12.20;99.90;;;;;;5010339;28;19914;-68
2021/09/17 02:16:39;;;;;;;;;;;12.20;99.90;;;;;;5005072;28;19909;-68
2021/09/17 02:19:05;;;;;;;;;;;12.20;99.90;;;;;;5003344;28;19932;-68
2021/09/17 02:21:30;;;;;;;;;;;12.20;99.90;;;;;;5001553;28;20054;-68
2021/09/17 02:23:56;;;;;;;;;;;12.30;99.90;;;;;;5010018;28;20628;-68
2021/09/17 02:26:21;;;;;;;;;;;12.30;99.90;;;;;;5006275;28;20436;-68
2021/09/17 02:28:47;;;;;;;;;;;12.30;99.90;;;;;;4991850;28;20460;-68
2021/09/17 02:31:13;;;;;;;;;;;12.30;99.90;;;;;;5007197;28;20019;-68
2021/09/17 02:33:38;;;;;;;;;;;12.30;99.90;;;;;;5002769;28;19918;-68
2021/09/17 02:36:04;;;;;;;;;;;12.30;99.90;;;;;;5009012;28;19909;-68
2021/09/17 02:38:30;;;;;;;;;;;12.30;99.90;;;;;;5005271;28;20292;-68
2021/09/17 02:40:55;;;;;;;;;;;12.30;99.90;;;;;;5003936;28;19910;-68
2021/09/17 02:43:21;;;;;;;;;;;12.30;99.90;;;;;;4988593;28;19944;-68
2021/09/17 02:45:47;;;;;;;;;;;12.40;99.90;;;;;;5003877;28;19946;-68
2021/09/17 02:48:12;;;;;;;;;;;12.30;99.90;;;;;;5008163;28;20000;-68
2021/09/17 02:50:38;;;;;;;;;;;12.30;99.90;;;;;;5006053;28;19988;-69
2021/09/17 02:53:05;;;;;;;;;;;12.40;99.90;;;;;;5008022;28;19991;-68
2021/09/17 02:55:31;;;;;;;;;;;12.40;99.90;;;;;;5008603;28;19951;-68
2021/09/17 02:57:57;;;;;;;;;;;12.40;99.90;;;;;;5008947;28;19937;-68
2021/09/17 03:00:22;;;;;;;;;;;12.40;99.90;;;;;;5004931;28;19975;-68
2021/09/17 03:02:48;;;;;;;;;;;12.40;99.90;;;;;;4991978;28;20016;-68
2021/09/17 03:05:14;;;;;;;;;;;12.40;99.90;;;;;;5005300;28;19940;-68
2021/09/17 03:07:39;;;;;;;;;;;12.40;99.90;;;;;;4999738;28;19917;-68
2021/09/17 03:10:05;;;;;;;;;;;12.40;99.90;;;;;;5008960;28;19944;-68
2021/09/17 03:12:31;;;;;;;;;;;12.50;99.90;;;;;;5004214;28;19960;-68
2021/09/17 03:14:56;;;;;;;;;;;12.60;99.90;;;;;;5002180;28;19912;-68
2021/09/17 03:17:22;;;;;;;;;;;12.50;99.90;;;;;;4998496;28;19910;-68
2021/09/17 03:19:47;;;;;;;;;;;12.60;99.90;;;;;;5008425;28;19971;-68
2021/09/17 03:22:13;;;;;;;;;;;12.60;99.90;;;;;;4991373;28;19909;-68
2021/09/17 03:24:39;;;;;;;;;;;12.60;99.90;;;;;;5007138;28;19967;-68
2021/09/17 03:27:04;;;;;;;;;;;12.60;99.90;;;;;;5008752;28;19937;-68
2021/09/17 03:29:30;;;;;;;;;;;12.60;99.90;;;;;;5006508;28;19914;-68
2021/09/17 03:31:55;;;;;;;;;;;12.60;99.90;;;;;;5002403;28;19922;-68
2021/09/17 03:34:21;;;;;;;;;;;12.60;99.90;;;;;;5008963;28;19910;-68
2021/09/17 03:36:46;;;;;;;;;;;12.60;99.90;;;;;;5009089;28;19992;-68
2021/09/17 03:39:13;;;;;;;;;;;12.60;99.90;;;;;;5005839;28;19920;-68
2021/09/17 03:41:39;;;;;;;;;;;12.60;99.90;;;;;;4990058;28;20020;-68
2021/09/17 03:44:05;;;;;;;;;;;12.60;99.90;;;;;;4990076;28;19924;-68
2021/09/17 03:46:30;;;;;;;;;;;12.60;99.90;;;;;;4988177;28;19992;-68
2021/09/17 03:48:56;;;;;;;;;;;12.60;99.90;;;;;;5008653;28;19905;-68
2021/09/17 03:51:21;;;;;;;;;;;12.60;99.90;;;;;;5001200;28;19913;-68
2021/09/17 03:53:47;;;;;;;;;;;12.60;99.90;;;;;;4994016;28;19917;-68
2021/09/17 03:56:12;;;;;;;;;;;12.60;99.90;;;;;;5008374;28;20280;-68
2021/09/17 03:58:37;;;;;;;;;;;12.60;99.90;;;;;;4999927;28;19905;-68
2021/09/17 04:01:03;;;;;;;;;;;12.60;99.90;;;;;;4997115;28;20305;-68
2021/09/17 04:03:29;;;;;;;;;;;12.60;99.90;;;;;;5003634;28;19913;-68
2021/09/17 04:05:54;;;;;;;;;;;12.60;99.90;;;;;;5003054;28;20377;-68
2021/09/17 04:08:20;;;;;;;;;;;12.60;99.90;;;;;;5004623;28;19917;-72
2021/09/17 04:10:45;;;;;;;;;;;12.60;99.90;;;;;;4986498;28;20007;-69
2021/09/17 04:13:11;;;;;;;;;;;12.70;99.90;;;;;;4997642;28;19952;-68
2021/09/17 04:15:36;;;;;;;;;;;12.70;99.90;;;;;;4993958;28;19914;-68
2021/09/17 04:18:02;;;;;;;;;;;12.70;99.90;;;;;;4994421;28;20004;-68
2021/09/17 04:20:27;;;;;;;;;;;12.70;99.90;;;;;;4980164;28;19963;-68
2021/09/17 04:22:53;;;;;;;;;;;12.70;99.90;;;;;;4993716;28;19914;-68
2021/09/17 04:25:18;;;;;;;;;;;12.60;99.90;;;;;;5003136;28;19909;-68
2021/09/17 04:27:44;;;;;;;;;;;12.60;99.90;;;;;;4982147;28;19949;-70
2021/09/17 04:30:10;;;;;;;;;;;12.60;99.90;;;;;;4990089;28;19913;-68
2021/09/17 04:32:36;;;;;;;;;;;12.60;99.90;;;;;;4991834;28;19933;-68
2021/09/17 04:35:03;;;;;;;;;;;12.60;99.90;;;;;;4982853;28;19916;-68
2021/09/17 04:37:28;;;;;;;;;;;12.60;99.90;;;;;;4992408;28;20336;-68
2021/09/17 04:39:53;;;;;;;;;;;12.70;99.90;;;;;;4994423;28;20008;-68
2021/09/17 04:42:19;;;;;;;;;;;12.70;99.90;;;;;;4996132;28;20257;-68
2021/09/17 04:44:44;;;;;;;;;;;12.70;99.90;;;;;;4998208;28;20281;-68
2021/09/17 04:47:10;;;;;;;;;;;12.70;99.90;;;;;;4988713;28;19909;-68
2021/09/17 04:49:35;;;;;;;;;;;12.60;99.90;;;;;;4993982;28;19916;-68
2021/09/17 04:52:01;;;;;;;;;;;12.70;99.90;;;;;;4998272;28;19917;-68
2021/09/17 04:54:27;;;;;;;;;;;12.60;99.90;;;;;;4999679;28;19992;-68
2021/09/17 04:56:52;;;;;;;;;;;12.60;99.90;;;;;;5005827;28;19920;-68
2021/09/17 04:59:18;;;;;;;;;;;12.60;99.90;;;;;;4991551;28;20000;-68
2021/09/17 05:01:43;;;;;;;;;;;12.60;99.90;;;;;;5004826;28;20355;-68
2021/09/17 05:04:09;;;;;;;;;;;12.70;99.90;;;;;;5004957;28;19917;-69
2021/09/17 05:06:34;;;;;;;;;;;12.70;99.90;;;;;;5008098;28;19996;-68
2021/09/17 05:09:00;;;;;;;;;;;12.70;99.90;;;;;;5005858;28;20305;-69
2021/09/17 05:11:26;;;;;;;;;;;12.70;99.90;;;;;;5002435;28;19909;-68
2021/09/17 05:13:52;;;;;;;;;;;12.70;99.90;;;;;;5006585;28;19917;-68
2021/09/17 05:16:17;;;;;;;;;;;12.70;99.90;;;;;;5005108;28;19920;-68
2021/09/17 05:18:43;;;;;;;;;;;12.70;99.90;;;;;;5005396;28;19917;-68
2021/09/17 05:21:09;;;;;;;;;;;12.70;99.90;;;;;;5000513;28;20269;-68
2021/09/17 05:23:35;;;;;;;;;;;12.70;99.90;;;;;;5000842;28;19905;-68
2021/09/17 05:26:02;;;;;;;;;;;12.70;99.90;;;;;;5009321;28;20020;-68
2021/09/17 05:28:28;;;;;;;;;;;12.80;99.90;;;;;;5008512;28;20534;-68
2021/09/17 05:30:53;;;;;;;;;;;12.80;99.90;;;;;;5012445;28;19916;-68
2021/09/17 05:33:19;;;;;;;;;;;12.90;99.90;;;;;;5012164;28;19924;-68
2021/09/17 05:35:44;;;;;;;;;;;12.90;99.90;;;;;;4996735;28;19918;-68
2021/09/17 05:38:10;;;;;;;;;;;13.00;99.90;;;;;;4982135;28;19918;-68
2021/09/17 05:40:35;;;;;;;;;;;13.10;99.90;;;;;;5007580;28;20345;-68
2021/09/17 05:43:01;;;;;;;;;;;13.10;99.90;;;;;;5011354;28;20377;-68
2021/09/17 05:45:26;;;;;;;;;;;13.20;99.90;;;;;;5011778;28;19913;-68
2021/09/17 05:47:52;;;;;;;;;;;13.40;99.90;;;;;;5009986;28;19909;-69
2021/09/17 05:50:17;;;;;;;;;;;13.40;99.90;;;;;;5005156;28;19917;-68
2021/09/17 05:52:43;;;;;;;;;;;13.60;99.90;;;;;;4991026;28;19910;-68
2021/09/17 05:55:09;;;;;;;;;;;13.70;99.90;;;;;;5006983;28;19967;-68
2021/09/17 05:57:34;;;;;;;;;;;13.80;99.90;;;;;;5011639;28;19909;-68
2021/09/17 06:00:00;;;;;;;;;;;13.80;99.90;;;;;;5004854;28;20605;-68
2021/09/17 06:02:25;;;;;;;;;;;13.90;99.90;;;;;;4989836;28;19917;-68
2021/09/17 06:04:51;;;;;;;;;;;14.00;99.90;;;;;;5005097;28;19958;-69
2021/09/17 06:07:16;;;;;;;;;;;14.10;99.90;;;;;;4985102;28;19906;-68
2021/09/17 06:09:42;;;;;;;;;;;14.10;99.90;;;;;;4994514;28;20000;-68
2021/09/17 06:12:07;;;;;;;;;;;14.10;99.90;;;;;;5000934;28;19906;-69
2021/09/17 06:14:33;;;;;;;;;;;14.10;99.90;;;;;;5000235;28;20454;-68
2021/09/17 06:16:59;;;;;;;;;;;14.30;99.90;;;;;;4992390;28;20104;-68
2021/09/17 06:19:24;;;;;;;;;;;14.40;99.90;;;;;;5003087;28;19910;-68
2021/09/17 06:21:50;;;;;;;;;;;14.50;99.90;;;;;;4994502;28;20047;-69
2021/09/17 06:24:15;;;;;;;;;;;14.50;99.90;;;;;;4995182;28;19910;-69
2021/09/17 06:26:40;;;;;;;;;;;14.60;99.90;;;;;;4995066;28;19913;-68
2021/09/17 06:29:07;;;;;;;;;;;14.80;99.90;;;;;;4999367;28;20455;-69
2021/09/17 06:31:33;;;;;;;;;;;14.80;99.90;;;;;;4996270;28;20373;-68
2021/09/17 06:33:59;;;;;;;;;;;14.90;99.90;;;;;;4993972;28;19913;-69
2021/09/17 06:36:25;;;;;;;;;;;15.10;99.90;;;;;;5007896;28;19916;-68
2021/09/17 06:38:50;;;;;;;;;;;15.10;99.90;;;;;;4989740;28;20383;-68
2021/09/17 06:41:16;;;;;;;;;;;15.20;99.90;;;;;;5002399;28;19916;-68
2021/09/17 06:43:41;;;;;;;;;;;15.30;99.90;;;;;;5006961;28;19909;-68
2021/09/17 06:46:07;;;;;;;;;;;15.20;99.90;;;;;;4997059;28;19993;-71
2021/09/17 06:48:32;;;;;;;;;;;15.30;99.90;;;;;;5001138;28;19917;-68
2021/09/17 06:50:58;;;;;;;;;;;15.40;99.90;;;;;;4998118;28;19913;-68
2021/09/17 06:53:23;;;;;;;;;;;15.60;99.90;;;;;;5003906;28;19917;-68
2021/09/17 06:55:49;;;;;;;;;;;15.50;99.90;;;;;;5005826;28;20545;-69
2021/09/17 06:58:14;;;;;;;;;;;15.60;99.90;;;;;;4996335;28;19914;-68
2021/09/17 07:00:40;;;;;;;;;;;15.60;99.90;;;;;;4996159;28;19920;-68
2021/09/17 07:03:06;;;;;;;;;;;15.70;99.90;;;;;;4997282;28;20733;-67
2021/09/17 07:05:32;;;;;;;;;;;15.80;99.90;;;;;;4997302;28;20401;-68
2021/09/17 07:08:08;;;;;;;;;;;15.90;99.90;;;;;;4990660;28;19949;-68
2021/09/17 07:10:35;;;;;;;;;;;15.90;99.90;;;;;;4991885;28;19960;-68
2021/09/17 07:13:00;;;;;;;;;;;16.00;99.90;;;;;;4992322;28;19960;-68
2021/09/17 07:15:26;;;;;;;;;;;16.20;99.90;;;;;;4987861;28;20026;-68
2021/09/17 07:17:52;;;;;;;;;;;16.30;99.90;;;;;;4999561;28;20430;-68
2021/09/17 07:20:17;;;;;;;;;;;16.40;99.90;;;;;;4980910;28;19913;-68
2021/09/17 07:22:43;;;;;;;;;;;16.40;99.90;;;;;;4994984;28;20344;-68
2021/09/17 07:25:09;;;;;;;;;;;16.40;99.90;;;;;;5004164;28;19924;-68
2021/09/17 07:27:34;;;;;;;;;;;16.30;99.90;;;;;;5008281;28;19940;-69
2021/09/17 07:30:00;;;;;;;;;;;16.30;99.90;;;;;;5006833;28;19918;-69
2021/09/17 07:32:25;;;;;;;;;;;16.10;99.90;;;;;;5006341;28;19921;-68
2021/09/17 07:34:51;;;;;;;;;;;16.00;99.90;;;;;;5005123;28;19995;-69
2021/09/17 07:37:16;;;;;;;;;;;15.90;99.90;;;;;;5002415;28;19920;-69
2021/09/17 07:39:42;;;;;;;;;;;16.20;99.90;;;;;;4993897;28;19920;-69
2021/09/17 07:42:08;;;;;;;;;;;;;;;;;;5004282;28;19920;-69
2021/09/17 07:44:34;;;;;;;;;;;16.80;99.90;;;;;;5000522;28;19999;-69
2021/09/17 07:47:01;;;;;;;;;;;16.90;99.90;;;;;;4990579;28;19909;-69
2021/09/17 07:49:26;;;;;;;;;;;17.10;99.90;;;;;;5008284;28;19909;-69
2021/09/17 07:51:52;;;;;;;;;;;17.20;99.90;;;;;;5007650;28;19919;-69
2021/09/17 07:54:17;;;;;;;;;;;17.20;99.90;;;;;;5008222;28;19912;-68
2021/09/17 07:56:43;;;;;;;;;;;17.20;99.90;;;;;;4995908;28;19968;-69
2021/09/17 07:59:08;;;;;;;;;;;17.20;99.90;;;;;;5006743;28;20537;-68
2021/09/17 08:01:34;;;;;;;;;;;17.30;99.90;;;;;;5003607;28;20338;-68
2021/09/17 08:03:59;;;;;;;;;;;17.40;99.90;;;;;;5007357;28;19917;-68
2021/09/17 08:07:44;;;;;;;42.53;18.65;;;17.40;99.90;;;;;;5128481;27;20682;-66
2021/09/17 08:10:10;;;;;;;43.33;19.15;;;17.50;99.90;;;;;;5137098;27;20021;-67
2021/09/17 08:12:36;;;;;;;36.10;15.73;;;17.70;99.90;;;;;;5134665;27;20107;-67
2021/09/17 08:15:04;;;;;;;35.80;16.30;;;17.60;99.90;;;;;;5137873;27;20034;-67
2021/09/17 08:17:30;;;;;;;35.75;17.48;;;17.50;99.90;;;;;;5133260;27;20380;-67
2021/09/17 08:19:56;;;;;;;34.22;16.20;;;17.80;99.90;;;;;;5115601;27;20034;-67
2021/09/17 08:22:21;;;;;;;37.05;17.67;;;18.40;99.90;;;;;;5117187;27;20027;-66
2021/09/17 08:24:47;;;;;;;35.80;18.15;;;18.60;99.90;;;;;;5134422;27;20370;-66
2021/09/17 08:27:12;;;;;;;32.40;16.08;;;19.40;99.90;;;;;;5131655;27;20114;-67
2021/09/17 08:29:38;;;;;;;29.20;14.02;;;20.30;99.90;;;;;;5138296;27;20031;-67
2021/09/17 08:32:04;;;;;;;27.90;14.20;;;20.70;99.90;;;;;;5126321;27;20047;-67
2021/09/17 08:34:30;;;;;;;30.75;14.15;;;20.80;99.90;;;;;;5128830;27;20526;-70
2021/09/17 08:36:55;;;;;;;24.08;12.43;;;20.70;99.90;;;;;;5132353;27;20118;-67
2021/09/17 08:39:21;;;;;;;27.17;13.85;;;20.60;99.90;;;;;;5124382;27;20489;-67
2021/09/17 08:41:47;;;;;;;26.25;12.60;;;20.50;99.90;;;;;;5130079;27;20071;-68
2021/09/17 08:44:14;;;;;;;26.20;12.85;;;20.70;99.90;;;;;;5124097;27;20019;-68
2021/09/17 08:46:41;;;;;;;25.90;13.60;;;20.30;99.90;;;;;;5124502;27;20042;-68
2021/09/17 08:49:08;;;;;;;24.02;12.80;;;20.40;99.90;;;;;;5131928;27;20027;-69
2021/09/17 08:51:34;;;;;;;24.48;11.43;;;21.00;99.90;;;;;;5124348;27;20027;-69
2021/09/17 08:54:02;;;;;;;28.75;13.35;;;21.30;99.90;;;;;;5130204;27;20599;-69
2021/09/17 08:56:28;;;;;;;30.23;15.18;;;21.00;99.90;;;;;;5121993;27;20077;-69
2021/09/17 08:58:54;;;;;;;28.50;15.02;;;20.80;99.90;;;;;;5121467;27;20039;-68
2021/09/17 09:01:32;;;;;;;29.35;14.27;;;20.40;99.90;;;;;;5131681;27;20023;-68
2021/09/17 09:04:02;;;;;;;29.08;15.07;;;20.90;99.90;;;;;;5132547;27;20034;-68
2021/09/17 09:06:37;;;;;;;25.65;14.13;;;21.20;99.90;;;;;;5130481;27;20035;-68
2021/09/17 09:09:13;;;;;;;26.77;14.15;;;21.50;99.90;;;;;;5126146;27;20122;-68
2021/09/17 09:11:38;;;;;;;24.80;13.15;;;21.40;99.90;;;;;;5135933;27;20031;-68
2021/09/17 09:14:08;;;;;;;24.40;12.18;;;21.40;99.90;;;;;;5131326;27;20046;-68
2021/09/17 09:16:39;;;;;;;25.80;12.93;;;21.10;99.90;;;;;;5124391;27;20770;-68
2021/09/17 09:19:17;;;;;;;24.73;13.10;;;21.20;99.90;;;;;;5113792;27;20848;-68
2021/09/17 09:21:43;;;;;;;24.92;13.82;;;21.10;99.90;;;;;;5111803;27;20035;-68
2021/09/17 09:24:18;;;;;;;23.60;11.95;;;21.10;99.90;;;;;;5112709;27;20043;-68
2021/09/17 09:26:45;;;;;;;22.65;13.25;;;21.20;99.90;;;;;;5107057;27;20024;-68
2021/09/17 09:29:30;;;;;;;27.67;15.32;;;21.40;99.90;;;;;;5107419;27;20026;-68
2021/09/17 09:31:56;;;;;;;24.23;13.55;;;21.30;99.90;;;;;;5108629;27;20024;-68
2021/09/17 09:34:24;;;;;;;26.42;13.50;;;21.00;99.90;;;;;;5111042;27;20023;-68
2021/09/17 09:37:06;;;;;;;25.65;14.38;;;20.60;99.90;;;;;;5107812;27;20031;-69
2021/09/17 09:39:54;;;;;;;25.88;15.25;;;20.40;99.90;;;;;;5114325;27;20027;-68
2021/09/17 09:42:28;;;;;;;26.73;14.18;;;20.20;99.90;;;;;;5109426;27;20019;-68
2021/09/17 09:45:20;;;;;;;26.63;15.52;;;20.80;99.90;;;;;;5112633;27;20019;-67
2021/09/17 09:47:51;;;;;;;28.08;15.05;;;21.80;99.90;;;;;;5105692;27;20038;-69
2021/09/17 09:50:23;;;;;;;24.40;13.90;;;22.20;99.90;;;;;;5110217;27;20378;-69
2021/09/17 09:52:55;;;;;;;32.38;16.77;;;22.40;99.90;;;;;;5106092;27;20367;-69
2021/09/17 09:55:21;;;;;;;27.58;14.73;;;21.70;99.90;;;;;;5106074;27;20020;-69
2021/09/17 09:57:47;;;;;;;27.20;15.88;;;22.00;99.90;;;;;;5112319;27;20038;-69
2021/09/17 10:00:14;;;;;;;26.40;15.43;;;22.10;99.90;;;;;;5110767;27;20034;-69
2021/09/17 10:02:42;;;;;;;23.45;13.90;;;22.10;99.90;;;;;;5109067;27;20042;-69
2021/09/17 10:05:10;;;;;;;27.20;15.85;;;22.10;99.90;;;;;;5114512;27;20023;-69
2021/09/17 10:07:37;;;;;;;21.42;14.00;;;21.60;99.90;;;;;;5108210;27;20834;-69
2021/09/17 10:10:08;;;;;;;26.10;12.93;;;21.40;99.90;;;;;;5110404;27;20534;-69
2021/09/17 10:12:35;;;;;;;26.05;16.15;;;21.50;99.90;;;;;;5119012;27;20019;-69
2021/09/17 10:15:01;;;;;;;26.25;12.07;;;21.30;99.90;;;;;;5105908;27;20421;-69
2021/09/17 10:17:30;;;;;;;27.88;14.95;;;20.90;99.90;;;;;;5102954;28;20024;-69
2021/09/17 10:19:57;;;;;;;26.13;14.43;;;21.00;99.90;;;;;;5103165;28;20035;-69
2021/09/17 10:22:34;;;;;;;24.90;12.45;;;21.00;99.90;;;;;;5108749;27;20035;-69
2021/09/17 10:25:17;;;;;;;28.30;15.25;;;20.70;99.90;;;;;;5111517;27;20839;-69
2021/09/17 10:27:46;;;;;;;25.58;13.88;;;20.90;99.90;;;;;;5111561;27;20106;-69
2021/09/17 10:30:16;;;;;;;28.30;14.43;;;21.10;99.90;;;;;;5107117;27;20047;-69
2021/09/17 10:32:52;;;;;;;29.30;14.73;;;21.60;99.90;;;;;;5106091;27;20043;-69
2021/09/17 10:35:21;;;;;;;28.45;15.88;;;22.10;99.90;;;;;;5108117;27;20028;-70
2021/09/17 10:38:07;;;;;;;27.00;14.43;;;22.20;99.90;;;;;;5105117;27;20069;-69
2021/09/17 10:40:53;;;;;;;29.42;14.50;;;22.00;99.90;;;;;;5113366;27;21365;-69
2021/09/17 10:43:21;;;;;;;27.63;14.38;;;21.80;99.90;;;;;;5116556;27;20578;-69
2021/09/17 10:45:56;;;;;;;24.92;14.23;;;21.90;99.90;;;;;;5117626;27;20031;-69
2021/09/17 10:48:51;;;;;;;28.10;13.82;;;22.00;99.90;;;;;;5105471;27;20023;-69
2021/09/17 10:51:46;;;;;;;26.42;15.50;;;21.70;99.90;;;;;;5111731;27;20679;-69
2021/09/17 10:54:19;;;;;;;29.55;15.02;;;21.50;99.90;;;;;;5075514;27;20043;-69
2021/09/17 10:56:48;;;;;;;27.02;14.90;;;21.80;99.90;;;;;;5118331;27;20414;-69
2021/09/17 10:59:29;;;;;;;25.88;14.73;;;21.90;99.90;;;;;;5107635;27;20023;-68
2021/09/17 11:02:09;;;;;;;28.85;16.40;;;22.00;99.90;;;;;;5115677;27;20462;-69
2021/09/17 11:04:37;;;;;;;34.30;14.88;;;21.60;99.90;;;;;;5109561;27;20028;-69
2021/09/17 11:07:21;;;;;;;28.77;15.63;;;21.50;99.90;;;;;;5109333;27;20046;-69
2021/09/17 11:09:51;;;;;;;29.85;16.55;;;21.30;99.90;;;;;;5102792;28;20019;-69
2021/09/17 11:12:31;;;;;;;28.40;15.75;;;21.30;99.90;;;;;;5104350;27;20581;-69
2021/09/17 11:15:10;;;;;;;29.25;15.90;;;21.10;99.90;;;;;;5108047;27;20104;-69
2021/09/17 11:17:40;;;;;;;28.55;14.80;;;21.00;99.90;;;;;;5109891;27;20453;-69
2021/09/17 11:20:12;;;;;;;25.98;14.63;;;21.00;99.90;;;;;;5109560;27;20035;-69
2021/09/17 11:23:08;;;;;;;29.42;14.90;;;20.90;99.90;;;;;;5106994;27;20059;-69
2021/09/17 11:25:42;;;;;;;27.33;14.35;;;21.10;99.90;;;;;;5086215;27;20111;-69
2021/09/17 11:28:29;;;;;;;24.52;13.60;;;21.00;99.90;;;;;;5108573;27;20080;-68
2021/09/17 11:31:16;;;;;;;24.88;12.85;;;20.90;99.90;;;;;;5108360;27;20026;-68
2021/09/17 11:33:42;;;;;;;23.25;12.35;;;20.80;99.90;;;;;;5114616;27;20049;-68
2021/09/17 11:36:08;;;;;;;22.63;12.30;;;20.80;99.90;;;;;;5111916;27;20392;-69
2021/09/17 11:38:33;;;;;;;22.42;11.82;;;20.90;99.90;;;;;;5112620;27;20027;-68
2021/09/17 11:40:59;;;;;;;24.50;12.65;;;21.10;99.90;;;;;;5116385;27;20578;-68
2021/09/17 11:43:26;;;;;;;27.13;12.90;;;21.10;99.90;;;;;;5114451;27;20100;-69
2021/09/17 11:45:54;;;;;;;22.92;13.02;;;21.20;99.90;;;;;;5114529;27;20119;-69
2021/09/17 11:48:29;;;;;;;25.98;11.63;;;21.50;99.90;;;;;;5108508;27;20019;-69
2021/09/17 11:50:56;;;;;;;28.33;13.48;;;21.80;99.90;;;;;;5117636;27;20031;-69
2021/09/17 11:53:22;;;;;;;26.23;14.15;;;22.00;99.90;;;;;;5116345;27;20019;-69
2021/09/17 11:55:47;;;;;;;23.77;13.00;;;22.20;99.90;;;;;;5114455;27;20024;-69
2021/09/17 11:58:13;;;;;;;25.02;13.55;;;22.50;99.90;;;;;;5110791;28;20038;-69
2021/09/17 12:00:39;;;;;;;30.52;14.35;;;22.10;99.90;;;;;;5107299;27;20027;-69
2021/09/17 12:03:08;;;;;;;25.15;13.23;;;22.10;99.90;;;;;;5103667;28;20026;-69
2021/09/17 12:05:37;;;;;;;22.98;13.13;;;22.30;99.90;;;;;;5104602;28;20028;-69
2021/09/17 12:08:03;;;;;;;25.37;13.20;;;22.40;99.90;;;;;;5109778;27;20478;-68
2021/09/17 12:10:34;;;;;;;23.90;12.43;;;22.30;99.90;;;;;;5111423;28;20265;-69
2021/09/17 12:13:01;;;;;;;24.58;12.30;;;22.80;99.90;;;;;;5116383;27;20027;-69
2021/09/17 12:15:33;;;;;;;22.35;12.15;;;23.10;99.90;;;;;;5117108;27;20138;-69
2021/09/17 12:18:04;;;;;;;25.38;12.65;;;23.00;99.90;;;;;;5101470;27;20055;-68
2021/09/17 12:20:54;;;;;;;25.83;12.40;;;22.60;99.90;;;;;;5102471;28;20016;-69
2021/09/17 12:23:32;;;;;;;24.60;13.88;;;22.60;99.90;;;;;;5108674;28;20038;-69
2021/09/17 12:26:12;;;;;;;21.95;12.27;;;22.60;99.90;;;;;;5110780;27;20039;-69
2021/09/17 12:28:40;;;;;;;19.85;9.68;;;22.70;99.90;;;;;;5099808;28;20500;-69
2021/09/17 12:31:08;;;;;;;20.08;10.98;;;22.80;99.90;;;;;;5111104;28;20123;-69
2021/09/17 12:33:34;;;;;;;21.33;10.60;;;22.80;99.90;;;;;;5105519;27;20164;-69
2021/09/17 12:36:13;;;;;;;18.02;10.32;;;22.50;99.90;;;;;;5106760;28;20126;-68
2021/09/17 12:38:40;;;;;;;18.17;10.77;;;25.10;99.90;;;;;;5113252;28;20027;-68
2021/09/17 12:41:11;;;;;;;19.42;9.48;;;25.20;99.90;;;;;;5122904;27;20559;-68
2021/09/17 12:43:37;;;;;;;20.13;9.05;;;26.60;97.30;;;;;;5123737;27;20014;-68
2021/09/17 12:46:12;;;;;;;21.55;9.27;;;27.30;95.10;;;;;;5109050;28;20039;-68
2021/09/17 12:48:44;;;;;;;15.65;9.43;;;27.40;94.50;;;;;;5106336;28;20064;-69
2021/09/17 12:51:26;;;;;;;16.77;8.93;;;28.10;94.10;;;;;;5108301;28;20024;-69
2021/09/17 12:53:52;;;;;;;18.15;10.68;;;27.30;92.80;;;;;;5112397;27;20027;-69
2021/09/17 12:56:18;;;;;;;16.98;9.48;;;25.70;95.20;;;;;;5112385;27;20087;-69
2021/09/17 12:58:44;;;;;;;19.10;10.95;;;24.90;96.80;;;;;;5117016;27;20107;-69
2021/09/17 13:01:11;;;;;;;19.17;9.57;;;25.20;96.10;;;;;;5108959;27;20035;-69
2021/09/17 13:03:37;;;;;;;18.50;9.68;;;25.30;96.60;;;;;;5116900;27;20027;-69
2021/09/17 13:06:06;;;;;;;16.70;8.65;;;24.60;98.10;;;;;;5106479;27;20044;-69
2021/09/17 13:08:37;;;;;;;18.15;10.10;;;24.30;98.20;;;;;;5106135;27;20640;-69
2021/09/17 13:11:03;;;;;;;18.98;11.45;;;23.70;99.60;;;;;;5107567;27;20024;-69
2021/09/17 13:13:30;;;;;;;17.85;9.63;;;23.70;98.90;;;;;;5114067;27;20476;-69
2021/09/17 13:15:55;;;;;;;19.23;10.73;;;23.70;99.50;;;;;;5113930;27;20564;-69
2021/09/17 13:18:21;;;;;;;15.88;8.88;;;23.60;98.80;;;;;;5122462;27;20046;-69
2021/09/17 13:20:47;;;;;;;14.07;7.13;;;23.70;99.90;;;;;;5117744;27;20031;-69
2021/09/17 13:23:14;;;;;;;17.98;10.20;;;23.50;99.30;;;;;;5117466;27;20051;-69
2021/09/17 13:25:40;;;;;;;20.02;11.18;;;23.20;99.90;;;;;;5114868;27;20023;-69
2021/09/17 13:28:06;;;;;;;17.23;10.10;;;23.40;99.90;;;;;;5119958;27;20157;-68
2021/09/17 13:30:34;;;;;;;18.50;10.70;;;23.60;99.90;;;;;;5127484;27;20027;-68
2021/09/17 13:33:01;;;;;;;17.98;10.13;;;23.60;99.90;;;;;;5115573;27;20030;-69